Time;durP1;ratioP1;P1;durP2;ratioP2;P2;SDS_P1;SDS_P2;PMS_P1;PMS_P2;Temp;Humidity;BMP_temperature;BMP_pressure;BME280_temperature;BME280_humidity;BME280_pressure;Samples;Min_cycle;Max_cycle;Signal;HPM_P1;HPM_P2
2024/01/27 20:48:49;;;;;;;48.35;15.40;;;3.40;99.90;;;;;;5125959;27;20112;-49
2024/01/27 20:51:15;;;;;;;64.50;21.42;;;3.30;99.90;;;;;;5126355;28;20047;-53
2024/01/27 20:53:40;;;;;;;74.07;25.80;;;3.30;99.90;;;;;;5125879;28;20027;-53
2024/01/27 20:56:06;;;;;;;63.45;22.98;;;3.40;99.90;;;;;;5123969;28;20031;-52
2024/01/27 20:58:32;;;;;;;70.53;23.90;;;3.30;99.90;;;;;;5105315;28;20038;-52
2024/01/27 21:00:57;;;;;;;50.55;18.42;;;3.30;99.90;;;;;;5105300;28;20550;-52
2024/01/27 21:03:23;;;;;;;58.97;19.33;;;3.40;99.90;;;;;;5105195;28;20024;-52
2024/01/27 21:05:49;;;;;;;65.57;20.52;;;3.30;99.90;;;;;;5105602;28;20092;-52
2024/01/27 21:08:14;;;;;;;60.50;20.58;;;3.30;99.90;;;;;;5105210;28;20124;-51
2024/01/27 21:10:41;;;;;;;66.80;21.60;;;3.40;99.90;;;;;;5104912;28;20521;-54
2024/01/27 21:13:07;;;;;;;65.28;19.88;;;3.40;99.90;;;;;;5105444;28;20034;-53
2024/01/27 21:15:35;;;;;;;49.75;17.40;;;3.40;99.90;;;;;;5105101;28;20118;-51
2024/01/27 21:18:04;;;;;;;54.80;17.20;;;3.40;99.90;;;;;;5086713;28;20432;-53
2024/01/27 21:20:30;;;;;;;53.22;20.23;;;3.40;99.90;;;;;;5105667;28;20034;-50
2024/01/27 21:22:56;;;;;;;59.05;20.15;;;3.50;99.90;;;;;;5105044;28;20035;-54
2024/01/27 21:25:22;;;;;;;50.28;18.20;;;3.40;99.90;;;;;;5105016;28;20532;-52
2024/01/27 21:27:47;;;;;;;48.03;16.73;;;3.40;99.90;;;;;;5120078;28;20100;-51
2024/01/27 21:30:13;;;;;;;46.17;14.10;;;3.40;99.90;;;;;;5125289;28;20023;-51
2024/01/27 21:32:39;;;;;;;33.42;12.23;;;3.40;99.90;;;;;;5125314;28;20687;-48
2024/01/27 21:35:05;;;;;;;42.20;12.60;;;3.50;99.90;;;;;;5125068;28;20089;-51
2024/01/27 21:37:31;;;;;;;36.83;10.52;;;3.50;99.90;;;;;;5125375;28;20031;-50
2024/01/27 21:39:59;;;;;;;41.85;12.07;;;3.50;99.90;;;;;;5125211;28;20031;-51
2024/01/27 21:42:25;;;;;;;28.52;9.43;;;3.50;99.90;;;;;;5107445;28;20379;-49
2024/01/27 21:44:50;;;;;;;32.78;9.32;;;3.50;99.90;;;;;;5124815;28;20026;-50
2024/01/27 21:47:16;;;;;;;28.45;9.02;;;3.50;99.90;;;;;;5124834;28;20052;-53
2024/01/27 21:49:42;;;;;;;29.00;8.02;;;3.50;99.90;;;;;;5124992;28;20028;-53
2024/01/27 21:52:07;;;;;;;25.80;9.18;;;3.50;99.90;;;;;;5125338;28;20428;-51
2024/01/27 21:54:35;;;;;;;32.95;9.27;;;3.60;99.90;;;;;;5124676;28;20355;-52
2024/01/27 21:57:01;;;;;;;31.83;10.55;;;3.60;99.90;;;;;;5124895;28;20413;-50
2024/01/27 21:59:27;;;;;;;31.15;9.45;;;3.60;99.90;;;;;;5115102;27;20035;-52
2024/01/27 22:01:52;;;;;;;30.87;9.93;;;3.60;99.90;;;;;;5111368;28;20023;-52
2024/01/27 22:04:19;;;;;;;26.30;9.02;;;3.70;99.90;;;;;;5111103;28;20117;-52
2024/01/27 22:06:44;;;;;;;21.77;8.40;;;3.70;99.90;;;;;;5092471;28;20151;-53
2024/01/27 22:09:10;;;;;;;25.83;9.35;;;3.70;99.90;;;;;;5110809;28;20475;-51
2024/01/27 22:11:36;;;;;;;33.30;8.40;;;3.80;99.90;;;;;;5110918;28;20610;-50
2024/01/27 22:14:02;;;;;;;33.40;8.98;;;3.80;99.90;;;;;;5109989;28;20063;-52
2024/01/27 22:16:28;;;;;;;32.15;9.45;;;3.80;99.90;;;;;;5110714;28;20070;-52
2024/01/27 22:18:54;;;;;;;35.83;8.85;;;3.80;99.90;;;;;;5110284;28;20038;-49
2024/01/27 22:21:19;;;;;;;31.67;9.07;;;3.80;99.90;;;;;;5092555;28;20126;-49
2024/01/27 22:23:45;;;;;;;30.00;9.85;;;3.80;99.90;;;;;;5110744;28;20078;-53
2024/01/27 22:26:11;;;;;;;26.50;9.80;;;3.90;99.90;;;;;;5110629;28;20076;-51
2024/01/27 22:28:37;;;;;;;31.90;9.48;;;3.90;99.90;;;;;;5110356;28;20024;-52
2024/01/27 22:31:03;;;;;;;32.57;9.23;;;3.90;99.90;;;;;;5110645;28;20035;-52
2024/01/27 22:33:29;;;;;;;32.03;10.80;;;3.90;99.90;;;;;;5110813;28;20074;-54
2024/01/27 22:35:55;;;;;;;35.67;10.43;;;3.80;99.90;;;;;;5110350;28;20627;-48
2024/01/27 22:38:20;;;;;;;38.20;11.65;;;3.80;99.90;;;;;;5110523;28;20020;-51
2024/01/27 22:40:46;;;;;;;27.13;8.40;;;3.80;99.90;;;;;;5110005;28;20057;-52
2024/01/27 22:43:12;;;;;;;26.80;8.80;;;3.80;99.90;;;;;;5110297;28;20034;-51
2024/01/27 22:45:37;;;;;;;33.90;8.57;;;3.90;99.90;;;;;;5110368;28;20211;-52
2024/01/27 22:48:04;;;;;;;26.17;9.43;;;3.90;99.90;;;;;;5109713;28;20047;-52
2024/01/27 22:50:30;;;;;;;20.63;8.77;;;3.90;99.90;;;;;;5109993;28;20020;-51
2024/01/27 22:52:55;;;;;;;33.80;9.55;;;3.90;99.90;;;;;;5109761;28;20031;-52
2024/01/27 22:55:21;;;;;;;31.60;11.45;;;3.90;99.90;;;;;;5110200;28;20023;-49
2024/01/27 22:57:47;;;;;;;28.80;9.00;;;3.90;99.90;;;;;;5109741;28;20034;-52
2024/01/27 23:00:24;;;;;;;23.95;8.85;;;3.90;99.90;;;;;;5109812;28;20019;-51
2024/01/27 23:02:50;;;;;;;26.90;9.37;;;3.90;99.90;;;;;;5109484;28;20067;-53
2024/01/27 23:05:16;;;;;;;37.65;10.88;;;3.90;99.90;;;;;;5109001;28;20301;-53
2024/01/27 23:07:42;;;;;;;37.47;11.73;;;4.00;99.90;;;;;;5109459;28;20047;-52
2024/01/27 23:10:08;;;;;;;47.78;13.50;;;3.90;99.90;;;;;;5108319;28;20028;-54
2024/01/27 23:12:33;;;;;;;31.02;12.07;;;3.90;99.90;;;;;;5108792;28;20027;-52
2024/01/27 23:14:59;;;;;;;36.88;11.00;;;3.90;99.90;;;;;;5109285;28;20030;-49
2024/01/27 23:17:25;;;;;;;35.72;10.82;;;3.90;99.90;;;;;;5109493;28;20016;-49
2024/01/27 23:19:50;;;;;;;32.58;10.00;;;4.00;99.90;;;;;;5099167;28;20035;-53
2024/01/27 23:22:16;;;;;;;33.53;10.88;;;4.00;99.90;;;;;;5108902;28;20035;-51
2024/01/27 23:24:42;;;;;;;38.15;11.90;;;4.00;99.90;;;;;;5108232;28;20058;-52
2024/01/27 23:27:08;;;;;;;37.83;11.52;;;4.10;99.90;;;;;;5109099;28;20031;-51
2024/01/27 23:29:37;;;;;;;35.65;11.57;;;4.00;99.90;;;;;;5109050;28;20391;-51
2024/01/27 23:32:04;;;;;;;28.25;10.23;;;4.10;99.90;;;;;;5106622;28;20474;-53
2024/01/27 23:34:30;;;;;;;40.60;11.02;;;4.10;99.90;;;;;;5108712;28;20023;-52
2024/01/27 23:36:56;;;;;;;40.63;10.57;;;4.10;99.90;;;;;;5108526;28;20026;-53
2024/01/27 23:39:21;;;;;;;36.55;12.90;;;4.10;99.90;;;;;;5109022;28;20396;-50
2024/01/27 23:41:47;;;;;;;40.38;12.63;;;4.10;99.90;;;;;;5108753;28;20469;-51
2024/01/27 23:44:13;;;;;;;38.88;14.55;;;4.10;99.90;;;;;;5108401;28;20127;-52
2024/01/27 23:46:38;;;;;;;51.45;16.17;;;4.00;99.90;;;;;;5108036;28;20031;-53
2024/01/27 23:49:04;;;;;;;45.58;15.20;;;4.00;99.90;;;;;;5109144;28;20027;-51
